Time;durP1;ratioP1;P1;durP2;ratioP2;P2;SDS_P1;SDS_P2;PMS_P1;PMS_P2;Temp;Humidity;BMP_temperature;BMP_pressure;BME280_temperature;BME280_humidity;BME280_pressure;Samples;Min_cycle;Max_cycle;Signal;HPM_P1;HPM_P2
2022/08/03 00:01:34;;;;;;;1.80;1.70;;;17.70;99.90;;;;;;4924623;28;20043;-39
2022/08/03 00:04:00;;;;;;;2.63;1.40;;;17.70;99.90;;;;;;4926195;29;20039;-37
2022/08/03 00:06:26;;;;;;;1.48;1.38;;;17.70;99.90;;;;;;4926829;29;20583;-38
2022/08/03 00:08:51;;;;;;;1.80;1.70;;;17.70;99.90;;;;;;4926804;29;20163;-37
2022/08/03 00:11:17;;;;;;;2.45;1.45;;;17.70;99.90;;;;;;4927249;29;20024;-39
2022/08/03 00:13:43;;;;;;;1.80;1.35;;;17.70;99.90;;;;;;4925329;29;20043;-39
2022/08/03 00:16:12;;;;;;;1.70;1.60;;;17.60;99.90;;;;;;4924436;29;20036;-38
2022/08/03 00:18:38;;;;;;;1.85;1.60;;;17.60;99.90;;;;;;4926588;29;20051;-39
2022/08/03 00:21:04;;;;;;;1.77;1.65;;;17.60;99.90;;;;;;4924917;29;20114;-37
2022/08/03 00:23:30;;;;;;;2.15;1.60;;;17.50;99.90;;;;;;4925814;29;20088;-40
2022/08/03 00:25:56;;;;;;;2.13;1.70;;;17.50;99.90;;;;;;4924600;29;20472;-38
2022/08/03 00:28:22;;;;;;;3.58;1.50;;;17.30;99.90;;;;;;4924798;29;20047;-39
2022/08/03 00:30:47;;;;;;;1.60;1.50;;;17.30;99.90;;;;;;4925130;28;20094;-39
2022/08/03 00:33:13;;;;;;;1.70;1.60;;;17.20;99.90;;;;;;4923767;29;20127;-39
2022/08/03 00:35:39;;;;;;;1.65;1.55;;;17.20;99.90;;;;;;4925064;29;20056;-39
2022/08/03 00:38:05;;;;;;;1.55;1.45;;;17.30;99.90;;;;;;4925050;29;20032;-39
2022/08/03 00:40:31;;;;;;;1.73;1.40;;;17.30;99.90;;;;;;4925958;29;20366;-39
2022/08/03 00:42:59;;;;;;;1.70;1.60;;;17.30;99.90;;;;;;4924202;29;20036;-39
2022/08/03 00:45:27;;;;;;;2.85;1.50;;;17.30;99.90;;;;;;4928340;29;20043;-39
2022/08/03 00:47:53;;;;;;;1.60;1.50;;;17.30;99.90;;;;;;4928223;29;20087;-36
2022/08/03 00:50:21;;;;;;;2.58;1.42;;;17.20;99.90;;;;;;4929593;29;20032;-38
2022/08/03 00:52:48;;;;;;;1.77;1.30;;;17.20;99.90;;;;;;4928183;29;20103;-39
2022/08/03 00:55:13;;;;;;;2.17;1.70;;;17.10;99.90;;;;;;4927309;29;20114;-40
2022/08/03 00:57:40;;;;;;;1.70;1.60;;;17.10;99.90;;;;;;4930317;29;20031;-38
2022/08/03 01:00:08;;;;;;;1.65;1.55;;;17.10;99.90;;;;;;4928849;29;20497;-39
2022/08/03 01:02:33;;;;;;;1.40;1.30;;;17.10;99.90;;;;;;4926281;28;20130;-38
2022/08/03 01:04:59;;;;;;;1.40;1.30;;;17.10;99.90;;;;;;4925028;29;20119;-38
2022/08/03 01:07:24;;;;;;;3.22;1.50;;;17.00;99.90;;;;;;4928574;29;20043;-37
2022/08/03 01:10:12;;;;;;;1.52;1.42;;;17.00;99.90;;;;;;4930415;29;20448;-37
2022/08/03 01:12:56;;;;;;;1.52;1.42;;;17.00;99.90;;;;;;4927476;29;20024;-40
2022/08/03 01:15:37;;;;;;;1.67;1.30;;;16.90;99.90;;;;;;4928554;29;20071;-37
2022/08/03 01:18:09;;;;;;;1.77;1.58;;;16.80;99.90;;;;;;4926886;29;20071;-39
2022/08/03 01:20:38;;;;;;;2.20;1.60;;;16.70;99.90;;;;;;4925396;29;20417;-39
2022/08/03 01:23:35;;;;;;;1.55;1.45;;;16.70;99.90;;;;;;4927309;29;20741;-39
2022/08/03 01:26:23;;;;;;;8.40;2.20;;;16.30;99.90;;;;;;4926707;29;20078;-38
2022/08/03 01:29:17;;;;;;;1.98;1.55;;;16.10;99.90;;;;;;4928836;29;20028;-37
2022/08/03 01:31:59;;;;;;;2.58;1.60;;;15.90;99.90;;;;;;4927827;28;20042;-39
2022/08/03 01:34:30;;;;;;;1.70;1.60;;;16.10;99.90;;;;;;4927764;29;20075;-36
2022/08/03 01:36:58;;;;;;;1.60;1.40;;;16.20;99.90;;;;;;4925315;29;20107;-39
2022/08/03 01:39:25;;;;;;;;;;;16.30;99.90;;;;;;4926911;29;20035;-35
2022/08/03 01:41:58;;;;;;;1.38;1.27;;;16.40;99.90;;;;;;4928464;29;19970;-38
2022/08/03 01:44:28;;;;;;;1.52;1.42;;;16.40;99.90;;;;;;4925478;29;20038;-38
2022/08/03 01:46:59;;;;;;;4.07;1.73;;;16.40;99.90;;;;;;4925618;29;20071;-39
2022/08/03 01:49:27;;;;;;;1.52;1.42;;;16.40;99.90;;;;;;4927402;29;20038;-39
2022/08/03 01:51:54;;;;;;;1.42;1.33;;;16.30;99.90;;;;;;4926160;29;20556;-38
2022/08/03 01:54:22;;;;;;;1.92;1.45;;;16.00;99.90;;;;;;4927613;29;20031;-39
2022/08/03 01:56:50;;;;;;;;;;;16.10;99.90;;;;;;4924502;29;20027;-39
2022/08/03 01:59:17;;;;;;;2.00;1.40;;;16.10;99.90;;;;;;4926945;29;19915;-39
2022/08/03 02:01:44;;;;;;;1.50;1.40;;;15.90;99.90;;;;;;4925159;28;20040;-37
2022/08/03 02:04:13;;;;;;;1.70;1.60;;;16.00;99.90;;;;;;4925969;29;20980;-39
2022/08/03 02:06:40;;;;;;;1.65;1.50;;;16.10;99.90;;;;;;4927415;29;20145;-38
2022/08/03 02:09:07;;;;;;;2.45;1.33;;;16.10;99.90;;;;;;4925374;29;20039;-37
2022/08/03 02:11:34;;;;;;;1.20;1.10;;;15.90;99.90;;;;;;4943644;29;20120;-38
2022/08/03 02:14:02;;;;;;;1.52;1.42;;;15.70;99.90;;;;;;4925271;29;20038;-37
2022/08/03 02:16:31;;;;;;;1.50;1.40;;;15.80;99.90;;;;;;4924390;29;20032;-39
2022/08/03 02:18:59;;;;;;;1.70;1.60;;;15.90;99.90;;;;;;4923347;29;20044;-36
2022/08/03 02:21:27;;;;;;;1.50;1.30;;;16.00;99.90;;;;;;4907742;29;20441;-38
2022/08/03 02:23:53;;;;;;;1.50;1.15;;;16.10;99.90;;;;;;4907447;29;20291;-38
2022/08/03 02:26:19;;;;;;;2.05;1.70;;;16.10;99.90;;;;;;4911682;29;20036;-37
2022/08/03 02:28:48;;;;;;;1.38;1.27;;;16.10;99.90;;;;;;4907714;29;20104;-39
2022/08/03 02:31:20;;;;;;;1.27;1.20;;;16.10;99.90;;;;;;4907740;29;20047;-37
2022/08/03 02:33:50;;;;;;;1.92;1.60;;;16.00;99.90;;;;;;4906995;29;20492;-39
2022/08/03 02:36:19;;;;;;;1.48;1.38;;;15.80;99.90;;;;;;4907693;29;20032;-39
2022/08/03 02:38:48;;;;;;;1.50;1.40;;;15.50;99.90;;;;;;4907167;29;20067;-39
2022/08/03 02:41:22;;;;;;;1.85;1.65;;;15.10;99.90;;;;;;4905336;29;20472;-39
2022/08/03 02:43:53;;;;;;;1.50;1.40;;;15.00;99.90;;;;;;4907305;29;20039;-39
2022/08/03 02:46:21;;;;;;;1.50;1.40;;;15.20;99.90;;;;;;4888667;29;20040;-39
2022/08/03 02:48:49;;;;;;;1.70;1.60;;;15.40;99.90;;;;;;4905503;29;20063;-39
2022/08/03 02:51:17;;;;;;;1.70;1.48;;;15.40;99.90;;;;;;4906595;29;20152;-37
2022/08/03 02:53:44;;;;;;;2.22;1.42;;;15.50;99.90;;;;;;4906666;29;20556;-39
2022/08/03 02:56:11;;;;;;;1.50;1.27;;;15.60;99.90;;;;;;4907433;29;20033;-39
2022/08/03 02:58:41;;;;;;;1.67;1.55;;;15.60;99.90;;;;;;4905909;29;20112;-39
2022/08/03 03:01:07;;;;;;;1.30;1.20;;;15.70;99.90;;;;;;4906826;29;20032;-39
2022/08/03 03:03:34;;;;;;;1.67;1.45;;;15.70;99.90;;;;;;4908405;29;20032;-39
2022/08/03 03:06:01;;;;;;;1.60;1.50;;;15.70;99.90;;;;;;4906279;29;20118;-39
2022/08/03 03:08:28;;;;;;;3.80;1.60;;;15.70;99.90;;;;;;4905012;29;20039;-39
2022/08/03 03:10:59;;;;;;;1.67;1.40;;;15.70;99.90;;;;;;4905663;29;20043;-38
2022/08/03 03:13:27;;;;;;;1.60;1.30;;;15.60;99.90;;;;;;4907001;29;20048;-38
2022/08/03 03:15:55;;;;;;;1.95;1.30;;;15.50;99.90;;;;;;4906278;29;20043;-35
2022/08/03 03:18:22;;;;;;;2.22;1.60;;;15.30;99.90;;;;;;4905812;29;20047;-38
2022/08/03 03:20:50;;;;;;;2.10;1.40;;;15.20;99.90;;;;;;4925154;29;20042;-36
2022/08/03 03:23:16;;;;;;;1.83;1.42;;;15.30;99.90;;;;;;4923418;29;20040;-35
2022/08/03 03:25:43;;;;;;;2.42;1.35;;;15.30;99.90;;;;;;4925686;29;20047;-39
2022/08/03 03:28:10;;;;;;;1.20;1.10;;;15.30;99.90;;;;;;4921741;29;20035;-37
2022/08/03 03:30:35;;;;;;;2.33;1.08;;;15.40;99.90;;;;;;4923644;29;20044;-36
2022/08/03 03:33:01;;;;;;;1.17;1.10;;;15.40;99.90;;;;;;4925521;29;20039;-39
2022/08/03 03:35:28;;;;;;;2.70;1.48;;;15.40;99.90;;;;;;4921929;29;20036;-36
2022/08/03 03:37:53;;;;;;;1.33;1.23;;;15.20;99.90;;;;;;4937211;29;20035;-37
2022/08/03 03:40:20;;;;;;;3.70;1.27;;;15.10;99.90;;;;;;4927176;29;20047;-39
2022/08/03 03:42:46;;;;;;;3.20;1.30;;;15.10;99.90;;;;;;4922564;29;20035;-38
2022/08/03 03:45:12;;;;;;;1.35;1.20;;;15.20;99.90;;;;;;4926906;29;20090;-37
2022/08/03 03:47:38;;;;;;;1.60;1.50;;;15.20;99.90;;;;;;4926652;29;20023;-39
2022/08/03 03:50:04;;;;;;;1.95;1.40;;;15.30;99.90;;;;;;4921437;29;20556;-38
2022/08/03 03:52:31;;;;;;;2.33;1.55;;;15.20;99.90;;;;;;4925290;29;20032;-38
2022/08/03 03:54:57;;;;;;;1.60;1.48;;;15.00;99.90;;;;;;4925632;29;20071;-39
2022/08/03 03:57:23;;;;;;;2.83;1.40;;;15.00;99.90;;;;;;4924028;29;20900;-37
2022/08/03 03:59:48;;;;;;;3.22;1.30;;;15.10;99.90;;;;;;4925343;29;20110;-36
2022/08/03 04:02:14;;;;;;;1.58;1.48;;;15.10;99.90;;;;;;4924913;28;20134;-38
2022/08/03 04:13:08;;;;;;;1.42;1.33;;;15.40;99.90;;;;;;4926582;29;20054;-38
2022/08/03 04:15:36;;;;;;;1.50;1.40;;;15.30;99.90;;;;;;4923351;29;20036;-38
2022/08/03 04:18:03;;;;;;;2.47;1.35;;;15.30;99.90;;;;;;4924344;29;20059;-37
2022/08/03 04:20:34;;;;;;;1.92;1.50;;;15.40;99.90;;;;;;4928819;29;20059;-39
2022/08/03 04:23:01;;;;;;;2.88;1.65;;;15.40;99.90;;;;;;4929053;29;20031;-36
2022/08/03 04:25:31;;;;;;;2.35;1.33;;;15.40;99.90;;;;;;4927387;29;20531;-38
2022/08/03 04:28:00;;;;;;;1.38;1.27;;;15.20;99.90;;;;;;4926890;29;20500;-38
2022/08/03 04:30:27;;;;;;;1.10;1.10;;;14.90;99.90;;;;;;4927701;28;20769;-39
2022/08/03 04:32:56;;;;;;;1.35;1.10;;;14.70;99.90;;;;;;4928348;29;20389;-37
2022/08/03 04:35:24;;;;;;;1.17;1.05;;;14.60;99.90;;;;;;4928871;29;20516;-37
2022/08/03 04:37:52;;;;;;;1.13;1.13;;;14.40;99.90;;;;;;4929293;29;20035;-35
2022/08/03 04:40:31;;;;;;;1.67;1.40;;;14.30;99.90;;;;;;4929084;29;20035;-38
2022/08/03 04:42:59;;;;;;;1.17;1.08;;;14.40;99.90;;;;;;4926764;29;20028;-37
2022/08/03 04:45:26;;;;;;;2.35;1.40;;;14.50;99.90;;;;;;4927460;29;20035;-39
2022/08/03 04:47:53;;;;;;;1.63;1.52;;;14.50;99.90;;;;;;4929056;29;20051;-40
2022/08/03 04:50:20;;;;;;;1.40;1.30;;;14.50;99.90;;;;;;4927397;29;20099;-38
2022/08/03 04:52:45;;;;;;;2.83;1.40;;;14.50;99.90;;;;;;4924963;29;20036;-36
2022/08/03 04:55:11;;;;;;;1.95;1.52;;;14.60;99.90;;;;;;4927749;29;20726;-38
2022/08/03 04:57:37;;;;;;;1.85;1.38;;;14.80;99.90;;;;;;4923797;29;20036;-37
2022/08/03 05:00:04;;;;;;;1.58;1.30;;;14.90;99.90;;;;;;4923063;29;20063;-36
2022/08/03 05:02:30;;;;;;;2.05;1.60;;;15.10;99.90;;;;;;4928065;28;20449;-39
2022/08/03 05:04:56;;;;;;;2.47;1.75;;;15.10;99.90;;;;;;4924008;29;20044;-39
2022/08/03 05:07:22;;;;;;;1.80;1.50;;;15.10;99.90;;;;;;4923043;29;20027;-36
2022/08/03 05:09:47;;;;;;;2.72;1.40;;;15.30;99.90;;;;;;4930331;29;20032;-39
2022/08/03 05:12:13;;;;;;;1.92;1.55;;;15.40;99.90;;;;;;4927154;29;20030;-39
2022/08/03 05:14:39;;;;;;;2.42;1.52;;;15.50;99.90;;;;;;4929877;29;20030;-40
2022/08/03 05:17:05;;;;;;;2.42;1.63;;;15.70;99.90;;;;;;4929237;29;20469;-38
2022/08/03 05:19:30;;;;;;;2.38;2.00;;;15.90;99.90;;;;;;4924705;29;20804;-39
2022/08/03 05:21:56;;;;;;;2.97;1.70;;;16.20;99.90;;;;;;4928390;29;20032;-38
2022/08/03 05:24:22;;;;;;;2.05;1.85;;;16.40;99.90;;;;;;4926930;29;20127;-39
2022/08/03 05:26:47;;;;;;;1.88;1.77;;;16.50;99.90;;;;;;4925552;29;20508;-39
2022/08/03 05:29:13;;;;;;;3.13;1.90;;;16.60;99.90;;;;;;4928320;29;20122;-39
2022/08/03 05:31:39;;;;;;;1.77;1.60;;;16.70;99.90;;;;;;4927772;28;20048;-40
2022/08/03 05:34:05;;;;;;;1.90;1.80;;;16.80;99.90;;;;;;4927186;29;20031;-38
2022/08/03 05:36:30;;;;;;;2.17;1.85;;;16.90;99.90;;;;;;4927215;29;20739;-36
2022/08/03 05:38:56;;;;;;;1.73;1.63;;;17.20;99.90;;;;;;4923584;29;20035;-37
2022/08/03 05:41:22;;;;;;;2.20;1.58;;;17.30;99.90;;;;;;4926920;29;20735;-40
2022/08/03 05:43:48;;;;;;;4.95;2.00;;;17.50;99.90;;;;;;4928174;29;20038;-39
2022/08/03 05:46:14;;;;;;;4.18;2.10;;;17.60;99.90;;;;;;4938970;28;20047;-38
2022/08/03 05:48:41;;;;;;;2.85;1.73;;;17.70;99.90;;;;;;4923809;29;20059;-40
2022/08/03 05:51:09;;;;;;;2.47;2.00;;;17.70;99.90;;;;;;4924741;29;20038;-40
2022/08/03 05:53:36;;;;;;;2.10;1.90;;;17.90;99.90;;;;;;4926137;29;20063;-38
2022/08/03 05:56:02;;;;;;;3.55;1.75;;;18.00;99.90;;;;;;4929984;29;20023;-40
2022/08/03 05:58:28;;;;;;;2.22;1.58;;;18.00;99.90;;;;;;4926073;29;20032;-40
2022/08/03 06:00:54;;;;;;;3.40;2.00;;;18.00;99.90;;;;;;4925637;29;20051;-39
2022/08/03 06:03:19;;;;;;;2.35;1.67;;;18.20;99.90;;;;;;4929139;29;20036;-39
2022/08/03 06:05:46;;;;;;;2.20;2.00;;;18.30;99.90;;;;;;4927326;29;20401;-40
2022/08/03 06:08:11;;;;;;;2.42;2.03;;;18.40;99.90;;;;;;4926101;29;20027;-40
2022/08/03 06:10:37;;;;;;;2.10;1.90;;;18.50;99.90;;;;;;4928421;29;20049;-40
2022/08/03 06:13:03;;;;;;;2.30;2.10;;;18.70;99.90;;;;;;4925345;29;20036;-37
2022/08/03 06:15:32;;;;;;;2.00;1.90;;;18.90;99.90;;;;;;4924184;29;20032;-39
2022/08/03 06:17:58;;;;;;;3.70;2.00;;;19.10;99.90;;;;;;4920087;29;20028;-40
2022/08/03 06:20:23;;;;;;;2.25;2.05;;;19.20;99.90;;;;;;4906903;29;20040;-40
2022/08/03 06:22:49;;;;;;;2.55;2.30;;;19.30;99.90;;;;;;4905276;29;20113;-38
2022/08/03 06:25:15;;;;;;;2.50;2.28;;;19.50;99.90;;;;;;4904823;29;20500;-39
2022/08/03 06:27:41;;;;;;;3.28;1.92;;;19.50;99.90;;;;;;4906697;29;20095;-39
2022/08/03 06:30:09;;;;;;;1.98;1.80;;;19.70;99.90;;;;;;4908140;29;20039;-37
2022/08/03 06:32:36;;;;;;;2.83;2.30;;;19.90;99.90;;;;;;4902439;29;20044;-39
2022/08/03 06:35:01;;;;;;;2.20;2.00;;;20.10;99.90;;;;;;4902938;29;20568;-38
2022/08/03 06:37:27;;;;;;;2.75;2.30;;;20.30;99.90;;;;;;4907427;29;20132;-39
2022/08/03 06:39:53;;;;;;;2.20;2.00;;;20.40;99.90;;;;;;4907026;29;20055;-36
2022/08/03 06:42:19;;;;;;;2.10;2.00;;;20.50;99.90;;;;;;4906467;29;20047;-39
2022/08/03 06:44:44;;;;;;;2.13;2.00;;;20.70;99.90;;;;;;4907962;29;20059;-39
2022/08/03 06:47:10;;;;;;;2.22;2.00;;;21.00;99.90;;;;;;4908002;29;20047;-39
2022/08/03 06:49:36;;;;;;;2.10;1.90;;;21.20;99.90;;;;;;4907812;29;20114;-39
2022/08/03 06:52:04;;;;;;;3.42;2.00;;;21.30;99.90;;;;;;4906397;29;20628;-37
2022/08/03 06:54:29;;;;;;;3.55;2.03;;;21.60;99.90;;;;;;4909006;29;20036;-36
2022/08/03 06:56:55;;;;;;;3.83;1.85;;;21.60;99.90;;;;;;4890768;29;20497;-38
2022/08/03 06:59:21;;;;;;;2.50;2.08;;;21.70;99.90;;;;;;4908129;29;20043;-39
2022/08/03 07:01:46;;;;;;;3.80;1.90;;;22.00;99.90;;;;;;4907648;29;20115;-37
2022/08/03 07:04:12;;;;;;;3.33;2.00;;;22.00;99.90;;;;;;4906063;29;20545;-36
2022/08/03 07:06:37;;;;;;;2.10;1.90;;;22.00;99.90;;;;;;4908510;29;20075;-40
2022/08/03 07:09:04;;;;;;;2.00;1.80;;;22.10;99.90;;;;;;4908282;29;20492;-39
2022/08/03 07:11:29;;;;;;;2.38;1.88;;;22.20;99.90;;;;;;4906620;29;20050;-36
2022/08/03 07:13:55;;;;;;;2.83;2.10;;;22.50;99.90;;;;;;4906210;29;20040;-39
2022/08/03 07:16:21;;;;;;;3.08;1.90;;;22.80;99.90;;;;;;4891417;29;20036;-38
2022/08/03 07:18:47;;;;;;;2.35;1.75;;;22.90;99.90;;;;;;4906895;29;20040;-39
2022/08/03 07:21:14;;;;;;;6.82;2.42;;;23.20;99.90;;;;;;4926216;29;20047;-39
2022/08/03 07:23:40;;;;;;;2.17;1.80;;;23.20;99.90;;;;;;4924122;29;20063;-39
2022/08/03 07:26:06;;;;;;;2.10;1.90;;;23.40;99.90;;;;;;4925574;29;20512;-39
2022/08/03 07:28:32;;;;;;;2.90;1.80;;;23.40;94.60;;;;;;4922710;29;20119;-38
2022/08/03 07:30:58;;;;;;;2.75;1.90;;;23.40;97.40;;;;;;4925528;28;20040;-40
2022/08/03 07:33:24;;;;;;;2.38;1.63;;;23.60;97.60;;;;;;4927357;29;20400;-36
2022/08/03 07:35:49;;;;;;;3.90;1.85;;;23.70;94.50;;;;;;4925584;29;20028;-39
2022/08/03 07:38:15;;;;;;;1.90;1.80;;;23.70;94.80;;;;;;4926478;29;20826;-39
2022/08/03 07:40:41;;;;;;;2.83;2.30;;;23.80;95.20;;;;;;4927070;29;20496;-39
2022/08/03 07:43:06;;;;;;;2.33;2.05;;;23.90;93.90;;;;;;4925652;29;20038;-39
2022/08/03 07:45:32;;;;;;;3.78;2.00;;;23.90;92.70;;;;;;4926547;29;20455;-39
2022/08/03 07:47:58;;;;;;;1.95;1.73;;;24.10;92.00;;;;;;4926847;29;20035;-38
2022/08/03 07:50:24;;;;;;;1.77;1.67;;;24.20;91.60;;;;;;4925429;29;20040;-37
2022/08/03 07:52:51;;;;;;;1.95;1.73;;;24.30;91.30;;;;;;4926649;29;20038;-39
2022/08/03 07:55:22;;;;;;;4.38;2.08;;;24.50;89.50;;;;;;4925259;28;20028;-39
2022/08/03 07:58:11;;;;;;;3.75;1.80;;;24.70;92.20;;;;;;4923027;29;20031;-37
2022/08/03 08:00:36;;;;;;;2.00;1.80;;;24.90;88.70;;;;;;4924496;29;20139;-39
2022/08/03 08:03:03;;;;;;;5.28;2.25;;;25.10;89.00;;;;;;4923516;29;20024;-40
2022/08/03 08:05:29;;;;;;;3.85;1.70;;;25.30;82.10;;;;;;4921220;29;20051;-39
2022/08/03 08:07:55;;;;;;;2.15;1.70;;;25.40;83.70;;;;;;4923927;29;20401;-38
2022/08/03 08:10:21;;;;;;;1.75;1.65;;;25.40;83.10;;;;;;4924130;29;20067;-38
2022/08/03 08:12:47;;;;;;;2.78;1.67;;;25.40;82.50;;;;;;4926781;29;20055;-37
2022/08/03 08:15:13;;;;;;;1.77;1.58;;;25.40;83.40;;;;;;4926421;29;20102;-40
2022/08/03 08:17:47;;;;;;;1.77;1.67;;;25.60;77.70;;;;;;4926668;29;20036;-39
2022/08/03 08:20:19;;;;;;;4.25;1.50;;;25.70;80.20;;;;;;4925974;29;20043;-38
2022/08/03 08:22:45;;;;;;;1.73;1.63;;;25.90;72.60;;;;;;4923497;29;20042;-37
2022/08/03 08:25:11;;;;;;;2.97;1.67;;;26.10;74.80;;;;;;4924300;29;20452;-38
2022/08/03 08:27:45;;;;;;;2.20;1.40;;;26.20;72.50;;;;;;4924994;29;20032;-37
2022/08/03 08:30:13;;;;;;;2.17;1.60;;;26.50;75.20;;;;;;4927576;29;20039;-36
2022/08/03 08:32:39;;;;;;;1.85;1.60;;;26.70;69.70;;;;;;4921830;29;20150;-38
2022/08/03 08:35:05;;;;;;;1.27;1.20;;;26.60;64.60;;;;;;4923679;29;20031;-39
2022/08/03 08:37:32;;;;;;;2.70;1.33;;;26.60;66.70;;;;;;4921716;29;20048;-39
2022/08/03 08:40:04;;;;;;;1.70;1.30;;;26.70;64.20;;;;;;4919154;29;20131;-39
2022/08/03 08:42:31;;;;;;;2.10;1.33;;;26.90;62.90;;;;;;4891207;29;20243;-37
2022/08/03 08:44:57;;;;;;;1.40;1.30;;;27.10;62.70;;;;;;4923247;29;20085;-38
2022/08/03 08:47:25;;;;;;;1.88;1.25;;;27.30;61.00;;;;;;4923049;29;20031;-39
2022/08/03 08:49:53;;;;;;;1.73;1.27;;;27.20;57.00;;;;;;4920254;29;20055;-37
2022/08/03 08:52:24;;;;;;;1.73;1.10;;;27.20;59.90;;;;;;4919632;29;20503;-39
2022/08/03 08:54:53;;;;;;;1.13;1.00;;;27.20;57.90;;;;;;4921948;29;20393;-36
2022/08/03 08:57:21;;;;;;;1.52;1.40;;;27.20;60.10;;;;;;4920483;29;20043;-38
2022/08/03 08:59:47;;;;;;;;;;;27.40;56.10;;;;;;4938406;29;20037;-39
2022/08/03 09:02:12;;;;;;;1.30;1.20;;;27.40;56.60;;;;;;4923091;28;20301;-39
2022/08/03 09:04:38;;;;;;;1.30;1.20;;;27.40;54.00;;;;;;4921611;29;20040;-38
2022/08/03 09:07:05;;;;;;;1.20;1.20;;;27.40;56.40;;;;;;4929317;29;20404;-39
2022/08/03 09:09:30;;;;;;;1.40;1.30;;;27.30;56.70;;;;;;4929107;29;20059;-37
2022/08/03 09:11:56;;;;;;;1.02;1.02;;;27.30;54.90;;;;;;4926975;29;20040;-38
2022/08/03 09:14:22;;;;;;;3.03;1.30;;;27.60;56.60;;;;;;4927419;29;20039;-39
2022/08/03 09:17:02;;;;;;;1.10;1.10;;;27.60;54.20;;;;;;4926525;29;20027;-42
2022/08/03 09:19:30;;;;;;;1.10;1.05;;;27.70;54.70;;;;;;4918771;29;20076;-39
2022/08/03 09:22:15;;;;;;;1.10;1.10;;;27.90;52.40;;;;;;4908637;29;20502;-39
2022/08/03 09:24:58;;;;;;;1.30;1.10;;;28.00;51.30;;;;;;4908874;29;20063;-38
2022/08/03 09:27:24;;;;;;;1.83;1.20;;;28.20;52.10;;;;;;4905885;29;20032;-38
2022/08/03 09:29:52;;;;;;;0.95;0.95;;;28.50;50.10;;;;;;4905705;29;20035;-38
2022/08/03 09:32:22;;;;;;;2.05;1.10;;;28.50;51.20;;;;;;4892152;29;20051;-39
2022/08/03 09:34:50;;;;;;;1.20;1.10;;;28.90;50.90;;;;;;4906072;29;20032;-39
2022/08/03 09:37:18;;;;;;;1.23;1.13;;;28.90;48.20;;;;;;4906024;29;20513;-38
2022/08/03 09:39:45;;;;;;;0.98;0.98;;;28.80;48.30;;;;;;4891316;29;21576;-39
2022/08/03 09:42:14;;;;;;;2.08;1.15;;;28.70;51.00;;;;;;4902365;29;20037;-40
2022/08/03 09:44:48;;;;;;;2.03;1.13;;;28.80;49.50;;;;;;4905598;29;20040;-40
2022/08/03 09:47:27;;;;;;;1.17;1.00;;;28.60;46.80;;;;;;4889875;29;20040;-39
2022/08/03 09:50:05;;;;;;;0.93;0.93;;;28.60;45.30;;;;;;4911270;29;20031;-39
2022/08/03 09:52:39;;;;;;;1.85;1.02;;;28.60;46.40;;;;;;4908886;29;20036;-40
2022/08/03 09:55:09;;;;;;;1.23;1.10;;;28.50;48.00;;;;;;4909105;29;20075;-38
2022/08/03 09:57:35;;;;;;;1.27;0.95;;;28.60;47.70;;;;;;4906138;29;20501;-40
2022/08/03 10:00:12;;;;;;;0.77;0.77;;;28.80;47.10;;;;;;4907769;29;20047;-39
2022/08/03 10:02:40;;;;;;;0.90;0.90;;;29.20;46.80;;;;;;4891347;29;20119;-39
2022/08/03 10:05:08;;;;;;;1.15;0.80;;;29.60;43.60;;;;;;4906559;29;21048;-38
2022/08/03 10:07:49;;;;;;;0.88;0.88;;;29.70;42.40;;;;;;4906990;29;20533;-37
2022/08/03 10:10:16;;;;;;;1.23;0.95;;;29.70;40.60;;;;;;4905163;29;20040;-38
2022/08/03 10:12:43;;;;;;;0.85;0.80;;;29.60;41.20;;;;;;4905982;29;20040;-38
2022/08/03 10:15:09;;;;;;;0.90;0.90;;;29.30;41.40;;;;;;4908440;29;20382;-38
2022/08/03 10:17:36;;;;;;;0.98;0.90;;;29.50;41.20;;;;;;4886961;29;20039;-38
2022/08/03 10:20:05;;;;;;;0.88;0.80;;;29.80;41.40;;;;;;4913281;29;20048;-38
2022/08/03 10:22:35;;;;;;;0.77;0.77;;;30.10;41.80;;;;;;4927308;29;20579;-37
2022/08/03 10:25:12;;;;;;;1.35;0.95;;;30.50;39.70;;;;;;4926279;29;20074;-39
2022/08/03 10:27:40;;;;;;;1.38;0.80;;;30.60;39.10;;;;;;4925418;29;20035;-38
2022/08/03 10:30:09;;;;;;;3.25;0.90;;;30.90;39.00;;;;;;4928296;29;20027;-38
2022/08/03 10:32:42;;;;;;;1.00;0.90;;;29.50;37.30;;;;;;4928284;29;20099;-39
2022/08/03 10:35:13;;;;;;;1.10;1.10;;;28.90;40.00;;;;;;4927409;29;20063;-39
2022/08/03 10:37:44;;;;;;;1.17;1.08;;;29.30;41.60;;;;;;4926578;29;20027;-39
2022/08/03 10:40:15;;;;;;;1.45;1.10;;;29.50;43.40;;;;;;4923192;29;20055;-37
2022/08/03 10:42:43;;;;;;;1.13;1.00;;;29.50;39.10;;;;;;4927083;29;20031;-39
2022/08/03 10:45:18;;;;;;;0.80;0.80;;;29.60;39.50;;;;;;4925359;29;20434;-39
2022/08/03 10:47:46;;;;;;;2.75;1.00;;;29.90;38.10;;;;;;4922816;29;20485;-39
2022/08/03 10:50:12;;;;;;;0.80;0.80;;;29.90;41.10;;;;;;4927054;29;20481;-38
2022/08/03 10:52:58;;;;;;;1.55;0.75;;;29.80;38.90;;;;;;4927673;29;20031;-35
2022/08/03 10:58:37;;;;;;;0.73;0.73;;;30.20;39.70;;;;;;4924243;29;20043;-38
2022/08/03 11:01:07;;;;;;;0.88;0.88;;;30.00;37.30;;;;;;4923416;28;20034;-39
2022/08/03 11:03:53;;;;;;;0.88;0.88;;;30.00;38.00;;;;;;4924490;29;20039;-36
2022/08/03 11:06:20;;;;;;;0.80;0.80;;;30.00;36.90;;;;;;4924788;29;20182;-38
2022/08/03 11:08:47;;;;;;;1.33;0.90;;;29.90;35.00;;;;;;4926188;29;20043;-36
2022/08/03 11:11:18;;;;;;;3.25;1.92;;;29.80;36.50;;;;;;4925602;29;20035;-36
2022/08/03 11:13:57;;;;;;;1.63;0.85;;;29.70;38.10;;;;;;4941404;29;20703;-39
2022/08/03 11:16:26;;;;;;;0.82;0.82;;;29.60;43.20;;;;;;4926517;29;20027;-38
2022/08/03 11:18:56;;;;;;;1.50;1.10;;;29.70;40.60;;;;;;4924617;29;20493;-38
2022/08/03 11:21:51;;;;;;;1.85;1.10;;;29.60;41.50;;;;;;4925609;29;20512;-38
2022/08/03 11:24:35;;;;;;;1.05;1.05;;;29.50;39.70;;;;;;4925711;29;20039;-38
2022/08/03 11:27:23;;;;;;;2.35;1.10;;;29.60;42.00;;;;;;4924179;29;20024;-37
2022/08/03 11:30:10;;;;;;;1.25;0.90;;;29.60;44.10;;;;;;4923992;29;20034;-39
2022/08/03 11:32:36;;;;;;;;;;;29.70;40.00;;;;;;4923705;28;20131;-39
2022/08/03 11:35:11;;;;;;;1.08;0.98;;;29.60;36.70;;;;;;4924213;29;20431;-35
2022/08/03 11:37:56;;;;;;;0.80;0.80;;;29.60;39.00;;;;;;4924530;29;20054;-37
2022/08/03 11:40:32;;;;;;;1.58;1.00;;;29.70;38.70;;;;;;4927618;29;20031;-39
2022/08/03 11:42:58;;;;;;;1.05;0.95;;;29.80;38.70;;;;;;4925785;29;21869;-39
2022/08/03 11:45:23;;;;;;;1.92;1.08;;;29.60;37.10;;;;;;4923290;29;20115;-37
2022/08/03 11:47:54;;;;;;;0.90;0.90;;;29.60;39.50;;;;;;4922904;29;20525;-38
2022/08/03 11:50:21;;;;;;;1.20;1.10;;;29.60;40.10;;;;;;4924329;29;20035;-37
2022/08/03 11:52:48;;;;;;;2.65;1.00;;;29.50;37.90;;;;;;4925641;29;20035;-38
2022/08/03 11:55:20;;;;;;;0.90;0.90;;;29.60;35.30;;;;;;4919961;29;20035;-39
2022/08/03 11:57:46;;;;;;;1.73;1.20;;;29.30;37.10;;;;;;4926133;29;20024;-41
2022/08/03 12:00:31;;;;;;;0.90;0.90;;;29.40;37.40;;;;;;4925340;29;20024;-39
2022/08/03 12:03:00;;;;;;;2.30;1.00;;;29.50;38.50;;;;;;4925546;29;20079;-38
2022/08/03 12:05:40;;;;;;;1.08;0.88;;;29.50;37.00;;;;;;4925937;29;20082;-38
2022/08/03 12:08:07;;;;;;;1.00;0.90;;;29.70;38.30;;;;;;4922633;29;20028;-39
2022/08/03 12:10:34;;;;;;;1.30;1.20;;;29.70;38.20;;;;;;4922401;29;20043;-36
2022/08/03 12:13:01;;;;;;;0.80;0.80;;;29.50;37.60;;;;;;4925003;29;20059;-40
2022/08/03 12:15:29;;;;;;;1.15;1.05;;;29.40;37.20;;;;;;4925289;29;20770;-39
2022/08/03 12:17:56;;;;;;;1.10;1.00;;;29.50;35.80;;;;;;4928294;29;20374;-35
2022/08/03 12:20:27;;;;;;;;;;;29.60;36.40;;;;;;4928216;29;20066;-38
2022/08/03 12:22:52;;;;;;;1.20;0.80;;;29.80;36.80;;;;;;4923469;29;20371;-35
2022/08/03 12:25:25;;;;;;;1.02;0.93;;;29.80;35.70;;;;;;4925024;29;20039;-39
2022/08/03 12:27:52;;;;;;;0.80;0.80;;;29.70;35.30;;;;;;4923379;29;20118;-39
2022/08/03 12:30:19;;;;;;;1.05;0.80;;;29.70;35.10;;;;;;4921783;28;21246;-35
2022/08/03 12:32:45;;;;;;;2.15;1.40;;;29.70;35.40;;;;;;4921895;29;20027;-38
2022/08/03 12:35:25;;;;;;;1.33;1.00;;;29.80;36.50;;;;;;4921172;29;20039;-39
2022/08/03 12:37:51;;;;;;;1.20;0.95;;;29.90;33.20;;;;;;4929571;29;20509;-39
2022/08/03 12:40:27;;;;;;;0.93;0.90;;;29.80;33.70;;;;;;4922294;29;20067;-37
2022/08/03 12:42:52;;;;;;;1.13;0.90;;;29.80;36.00;;;;;;4925453;29;20398;-39
2022/08/03 12:45:24;;;;;;;0.93;0.93;;;29.80;34.70;;;;;;4927248;29;20042;-37
2022/08/03 12:47:51;;;;;;;1.10;1.00;;;29.70;33.20;;;;;;4923309;29;20039;-39
2022/08/03 12:50:33;;;;;;;1.75;1.17;;;29.70;33.20;;;;;;4926768;29;20035;-38
2022/08/03 12:53:04;;;;;;;1.27;1.00;;;29.70;33.00;;;;;;4926664;29;20082;-38
2022/08/03 12:55:34;;;;;;;2.33;1.52;;;29.80;34.50;;;;;;4928514;29;20020;-39
2022/08/03 12:58:04;;;;;;;0.80;0.80;;;29.90;33.70;;;;;;4926723;29;20036;-38
2022/08/03 13:00:30;;;;;;;1.10;0.80;;;29.90;31.40;;;;;;4929530;28;20066;-38
2022/08/03 13:03:03;;;;;;;1.10;1.00;;;29.90;35.20;;;;;;4926836;28;20053;-39
2022/08/03 13:05:29;;;;;;;3.80;1.17;;;29.90;34.40;;;;;;4926957;29;20028;-39
2022/08/03 13:07:55;;;;;;;1.20;1.10;;;29.80;36.00;;;;;;4924174;29;20042;-36